createdAt,value
2022-09-14T00:00:32.655Z,3.90
2022-09-14T00:02:59.259Z,4.30
2022-09-14T00:05:26.065Z,3.87
2022-09-14T00:07:54.242Z,3.40
2022-09-14T00:10:20.731Z,3.90
2022-09-14T00:12:47.226Z,3.10
2022-09-14T00:15:13.744Z,3.10
2022-09-14T00:17:40.221Z,3.20
2022-09-14T00:20:07.845Z,5.07
2022-09-14T00:22:34.342Z,4.13
2022-09-14T00:25:00.830Z,5.83
2022-09-14T00:27:27.304Z,3.90
2022-09-14T00:29:53.902Z,3.30
2022-09-14T00:32:20.357Z,3.27
2022-09-14T00:34:46.886Z,3.13
2022-09-14T00:37:13.436Z,3.20
2022-09-14T00:39:39.972Z,3.67
2022-09-14T00:42:06.937Z,4.00
2022-09-14T00:44:33.317Z,5.63
2022-09-14T00:47:02.016Z,4.63
2022-09-14T00:49:38.252Z,3.93
2022-09-14T00:52:10.471Z,3.57
2022-09-14T00:54:54.265Z,3.50
2022-09-14T00:57:21.470Z,3.77
2022-09-14T00:59:50.120Z,4.03
2022-09-14T01:02:17.135Z,3.93
2022-09-14T01:04:44.197Z,3.77
2022-09-14T01:07:47.510Z,4.23
2022-09-14T01:10:32.725Z,3.93
2022-09-14T01:13:08.360Z,3.63
2022-09-14T01:15:41.522Z,4.70
2022-09-14T01:18:20.160Z,4.20
2022-09-14T01:21:04.332Z,3.90
2022-09-14T01:24:12.515Z,4.37
2022-09-14T01:26:52.810Z,4.67
2022-09-14T01:29:25.372Z,3.43
2022-09-14T01:32:08.995Z,3.77
2022-09-14T01:35:11.305Z,3.33
2022-09-14T01:37:42.266Z,4.00
2022-09-14T01:40:14.709Z,3.40
2022-09-14T01:42:43.164Z,3.50
2022-09-14T01:45:12.775Z,2.90
2022-09-14T01:47:49.279Z,3.87
2022-09-14T01:50:25.947Z,3.57
2022-09-14T01:52:59.795Z,2.97
2022-09-14T01:55:37.603Z,4.63
2022-09-14T01:58:28.331Z,5.13
2022-09-14T02:00:56.813Z,3.43
2022-09-14T02:03:27.361Z,2.60
2022-09-14T02:06:18.280Z,2.53
2022-09-14T02:08:45.025Z,3.07
2022-09-14T02:11:11.776Z,3.13
2022-09-14T02:13:38.535Z,3.13
2022-09-14T02:16:05.106Z,3.60
2022-09-14T02:18:31.940Z,3.37
2022-09-14T02:21:01.807Z,3.57
2022-09-14T02:23:28.814Z,3.67
2022-09-14T02:25:56.065Z,3.00
2022-09-14T02:28:22.576Z,3.33
2022-09-14T02:30:58.466Z,3.13
2022-09-14T02:33:46.010Z,3.23
2022-09-14T02:36:20.048Z,3.43
2022-09-14T02:38:57.347Z,3.13
2022-09-14T02:41:37.371Z,2.73
2022-09-14T02:44:20.488Z,3.40
2022-09-14T02:46:46.967Z,3.00
2022-09-14T02:49:24.171Z,3.70
2022-09-14T02:52:05.338Z,3.13
2022-09-14T02:54:37.610Z,3.27
2022-09-14T02:57:04.725Z,4.20
2022-09-14T02:59:31.293Z,3.67
2022-09-14T03:01:59.166Z,3.13
2022-09-14T03:04:25.666Z,3.40
2022-09-14T03:06:52.330Z,3.20
2022-09-14T03:09:18.904Z,2.90
2022-09-14T03:11:45.378Z,2.93
2022-09-14T03:14:11.997Z,3.23
2022-09-14T03:16:39.068Z,3.40
2022-09-14T03:19:06.439Z,3.90
2022-09-14T03:21:33.509Z,3.53
2022-09-14T03:24:00.056Z,3.40
2022-09-14T03:26:28.972Z,3.70
2022-09-14T03:28:57.892Z,2.80
2022-09-14T03:31:25.300Z,3.20
2022-09-14T03:33:56.546Z,3.20
2022-09-14T03:36:24.310Z,2.80
2022-09-14T03:38:53.525Z,3.07
2022-09-14T03:41:21.604Z,2.97
2022-09-14T03:43:48.395Z,2.90
2022-09-14T03:46:17.663Z,2.97
2022-09-14T03:48:44.616Z,3.00
2022-09-14T03:51:12.640Z,3.37
2022-09-14T03:53:40.010Z,3.90
2022-09-14T03:56:11.568Z,3.73
2022-09-14T03:58:38.503Z,3.80
2022-09-14T04:01:06.529Z,3.93
2022-09-14T04:03:33.310Z,3.80
2022-09-14T04:05:59.740Z,3.03
2022-09-14T04:08:26.484Z,3.47
2022-09-14T04:10:52.912Z,3.00
2022-09-14T04:13:19.587Z,3.07
2022-09-14T04:15:56.473Z,3.30
2022-09-14T04:18:23.064Z,3.57
2022-09-14T04:21:08.054Z,3.33
2022-09-14T04:23:46.148Z,4.40
2022-09-14T04:26:19.846Z,3.10
2022-09-14T04:28:46.561Z,4.67
2022-09-14T04:31:13.440Z,4.10
2022-09-14T04:33:41.950Z,4.20
2022-09-14T04:36:14.011Z,3.37
2022-09-14T04:38:41.978Z,4.07
2022-09-14T04:41:20.462Z,3.90
2022-09-14T04:43:49.642Z,3.27
2022-09-14T04:46:18.996Z,3.73
2022-09-14T04:48:45.866Z,3.20
2022-09-14T04:51:18.147Z,4.10
2022-09-14T04:53:46.883Z,3.53
2022-09-14T04:56:14.292Z,4.47
2022-09-14T04:58:51.567Z,3.40
2022-09-14T05:01:20.504Z,4.17
2022-09-14T05:03:47.136Z,4.97
2022-09-14T05:06:20.050Z,4.50
2022-09-14T05:08:46.998Z,4.70
2022-09-14T05:11:16.250Z,6.93
2022-09-14T05:13:47.547Z,4.83
2022-09-14T05:16:21.872Z,4.40
2022-09-14T05:18:48.969Z,4.40
2022-09-14T05:21:17.384Z,5.90
2022-09-14T05:23:44.675Z,5.40
2022-09-14T05:26:11.460Z,4.70
2022-09-14T05:28:38.329Z,4.00
2022-09-14T05:31:09.892Z,3.77
2022-09-14T05:33:37.223Z,4.40
2022-09-14T05:36:06.690Z,3.33
2022-09-14T05:38:36.278Z,3.50
2022-09-14T05:41:03.441Z,3.30
2022-09-14T05:43:30.160Z,3.33
2022-09-14T05:45:56.844Z,4.10
2022-09-14T05:48:23.421Z,2.70
2022-09-14T05:50:58.165Z,3.90
2022-09-14T05:53:24.683Z,4.27
2022-09-14T05:56:00.406Z,3.90
2022-09-14T05:58:27.472Z,3.63
2022-09-14T06:00:53.915Z,3.13
2022-09-14T06:03:20.399Z,3.10
2022-09-14T06:05:46.928Z,3.20
2022-09-14T06:08:13.608Z,3.37
2022-09-14T06:10:40.605Z,4.23
2022-09-14T06:13:07.880Z,3.13
2022-09-14T06:15:35.091Z,3.70
2022-09-14T06:18:01.697Z,3.00
2022-09-14T06:20:28.211Z,3.20
2022-09-14T06:22:55.499Z,3.60
2022-09-14T06:25:24.289Z,3.00
2022-09-14T06:27:54.439Z,2.87
2022-09-14T06:30:21.617Z,3.30
2022-09-14T06:32:48.120Z,3.60
2022-09-14T06:35:15.443Z,3.60
2022-09-14T06:37:42.425Z,3.00
2022-09-14T06:40:09.338Z,3.77
2022-09-14T06:42:35.856Z,3.43
2022-09-14T06:45:02.356Z,3.10
2022-09-14T06:47:32.865Z,3.20
2022-09-14T06:49:59.359Z,3.10
2022-09-14T06:52:28.605Z,3.30
2022-09-14T06:54:57.054Z,3.37
2022-09-14T06:57:23.630Z,2.90
2022-09-14T06:59:50.275Z,3.23
2022-09-14T07:02:16.859Z,3.20
2022-09-14T07:04:43.460Z,3.00
2022-09-14T07:07:09.882Z,2.67
2022-09-14T07:09:36.745Z,4.13
2022-09-14T07:12:03.300Z,3.40
2022-09-14T07:14:32.337Z,2.83
2022-09-14T07:16:59.016Z,3.07
2022-09-14T07:19:25.562Z,3.90
2022-09-14T07:21:53.886Z,3.50
2022-09-14T07:24:20.701Z,3.20
2022-09-14T07:26:47.529Z,3.10
2022-09-14T07:29:19.208Z,3.23
2022-09-14T07:31:46.906Z,3.63
2022-09-14T07:34:13.934Z,4.30
2022-09-14T07:36:40.929Z,3.60
2022-09-14T07:39:08.983Z,4.07
2022-09-14T07:41:36.391Z,3.17
2022-09-14T07:44:05.619Z,4.03
2022-09-14T07:46:38.096Z,3.00
2022-09-14T07:49:05.150Z,3.60
2022-09-14T07:51:32.492Z,3.80
2022-09-14T07:54:00.800Z,3.10
2022-09-14T07:56:27.729Z,3.50
2022-09-14T07:59:17.303Z,3.90
2022-09-14T08:01:46.767Z,4.00
2022-09-14T08:04:13.539Z,3.47
2022-09-14T08:06:40.607Z,4.30
2022-09-14T08:09:11.190Z,3.77
2022-09-14T08:11:38.561Z,4.67
2022-09-14T08:14:09.978Z,4.53
2022-09-14T08:16:38.696Z,3.17
2022-09-14T08:19:10.879Z,3.70
2022-09-14T08:21:37.439Z,3.77
2022-09-14T08:24:04.326Z,3.33
2022-09-14T08:26:31.595Z,3.87
2022-09-14T08:29:00.539Z,3.20
2022-09-14T08:31:28.445Z,3.00
2022-09-14T08:34:00.315Z,3.70
2022-09-14T08:36:29.347Z,3.23
2022-09-14T08:38:56.041Z,3.20
2022-09-14T08:41:43.705Z,3.40
2022-09-14T08:44:10.060Z,3.70
2022-09-14T08:46:40.782Z,6.13
2022-09-14T08:49:16.452Z,5.83
2022-09-14T08:51:43.181Z,4.00
2022-09-14T08:54:10.233Z,4.23
2022-09-14T08:56:41.189Z,3.70
2022-09-14T08:59:37.015Z,3.60
2022-09-14T09:02:27.765Z,2.90
2022-09-14T09:05:04.395Z,3.43
2022-09-14T09:07:52.137Z,2.90
2022-09-14T09:10:19.093Z,3.47
2022-09-14T09:12:48.869Z,5.00
2022-09-14T09:15:21.794Z,3.27
2022-09-14T09:17:51.468Z,3.23
2022-09-14T09:20:28.005Z,4.50
2022-09-14T09:23:16.043Z,3.33
2022-09-14T09:25:57.758Z,3.93
2022-09-14T09:28:25.690Z,3.03
2022-09-14T09:30:53.705Z,3.70
2022-09-14T09:33:24.563Z,3.37
2022-09-14T09:35:51.994Z,3.20
2022-09-14T09:38:24.892Z,3.63
2022-09-14T09:41:16.710Z,3.37
2022-09-14T09:44:00.534Z,3.07
2022-09-14T09:46:32.659Z,5.50
2022-09-14T09:49:00.004Z,3.27
2022-09-14T09:51:33.560Z,4.43
2022-09-14T09:54:18.769Z,4.50
2022-09-14T09:56:54.180Z,3.57
2022-09-14T09:59:41.858Z,3.43
2022-09-14T10:02:20.643Z,6.10
2022-09-14T10:05:18.722Z,3.70
2022-09-14T10:08:09.310Z,4.27
2022-09-14T10:10:39.426Z,3.77
2022-09-14T10:13:17.647Z,3.33
2022-09-14T10:15:44.483Z,3.30
2022-09-14T10:18:11.063Z,3.40
2022-09-14T10:20:52.450Z,3.10
2022-09-14T10:23:18.866Z,3.60
2022-09-14T10:25:49.554Z,4.23
2022-09-14T10:28:29.261Z,2.90
2022-09-14T10:31:02.881Z,2.87
2022-09-14T10:33:30.180Z,3.50
2022-09-14T10:35:56.643Z,3.87
2022-09-14T10:38:46.888Z,3.23
2022-09-14T10:41:16.704Z,3.93
2022-09-14T10:44:02.469Z,3.50
2022-09-14T10:46:30.999Z,3.60
2022-09-14T10:49:04.746Z,3.20
2022-09-14T10:51:53.022Z,3.13
2022-09-14T10:54:31.568Z,3.30
2022-09-14T10:57:20.391Z,3.80
2022-09-14T11:00:04.457Z,3.77
2022-09-14T11:02:44.837Z,3.10
2022-09-14T11:05:21.599Z,3.40
2022-09-14T11:08:09.629Z,3.27
2022-09-14T11:11:13.874Z,2.70
2022-09-14T11:13:52.425Z,2.63
2022-09-14T11:16:56.403Z,4.03
2022-09-14T11:19:37.536Z,3.50
2022-09-14T11:22:25.902Z,2.97
2022-09-14T11:24:59.889Z,2.93
2022-09-14T11:27:32.671Z,3.80
2022-09-14T11:30:04.436Z,4.00
2022-09-14T11:32:39.891Z,2.90
2022-09-14T11:35:43.401Z,3.50
2022-09-14T11:38:21.327Z,2.93
2022-09-14T11:40:56.013Z,3.30
2022-09-14T11:43:52.841Z,3.80
2022-09-14T11:46:24.434Z,2.90
2022-09-14T11:49:12.882Z,3.93
2022-09-14T11:51:44.486Z,3.30
2022-09-14T11:54:18.804Z,3.30
2022-09-14T11:56:55.838Z,4.30
2022-09-14T11:59:54.550Z,3.30
2022-09-14T12:02:24.023Z,3.40
2022-09-14T12:05:05.702Z,3.50
2022-09-14T12:07:45.568Z,3.50
2022-09-14T12:10:21.901Z,3.50
2022-09-14T12:12:58.291Z,3.70
2022-09-14T12:15:24.838Z,4.20
2022-09-14T12:17:52.499Z,3.07
2022-09-14T12:20:37.219Z,3.40
2022-09-14T12:23:22.968Z,2.20
2022-09-14T12:26:06.669Z,3.10
2022-09-14T12:28:36.083Z,2.93
2022-09-14T12:31:05.797Z,2.90
2022-09-14T12:33:35.128Z,2.60
2022-09-14T12:36:26.188Z,3.07
2022-09-14T12:38:53.172Z,3.80
2022-09-14T12:41:19.703Z,3.77
2022-09-14T12:43:49.125Z,3.90
2022-09-14T12:46:21.701Z,3.27
2022-09-14T12:48:48.403Z,3.57
2022-09-14T12:51:31.170Z,3.43
2022-09-14T12:54:09.720Z,3.30
2022-09-14T12:56:46.322Z,3.70
2022-09-14T12:59:20.957Z,3.20
2022-09-14T13:02:15.228Z,3.67
2022-09-14T13:04:42.346Z,4.50
2022-09-14T13:07:19.567Z,3.70
2022-09-14T13:09:56.850Z,3.83
2022-09-14T13:12:27.656Z,4.07
2022-09-14T13:14:56.600Z,3.40
2022-09-14T13:17:24.217Z,3.47
2022-09-14T13:19:58.461Z,3.60
2022-09-14T13:22:27.288Z,4.00
2022-09-14T13:24:53.915Z,3.27
2022-09-14T13:27:31.844Z,3.90
2022-09-14T13:30:19.644Z,3.67
2022-09-14T13:32:49.431Z,4.20
2022-09-14T13:35:28.008Z,4.17
2022-09-14T13:37:55.185Z,3.57
2022-09-14T13:40:28.436Z,4.00
2022-09-14T13:42:56.475Z,4.23
2022-09-14T13:45:23.987Z,3.50
2022-09-14T13:47:51.671Z,4.70
2022-09-14T13:50:18.392Z,4.00
2022-09-14T13:53:02.869Z,4.70
2022-09-14T13:55:33.714Z,5.20
2022-09-14T13:58:26.562Z,4.40
2022-09-14T14:01:11.313Z,3.90
2022-09-14T14:03:47.250Z,4.27
2022-09-14T14:06:28.934Z,3.57
2022-09-14T14:09:09.490Z,5.50
2022-09-14T14:11:45.568Z,5.50
2022-09-14T14:14:30.850Z,4.60
2022-09-14T14:17:13.163Z,3.90
2022-09-14T14:19:40.560Z,4.00
2022-09-14T14:22:16.113Z,4.43
2022-09-14T14:25:11.723Z,4.03
2022-09-14T14:27:33.586Z,3.97
2022-09-14T14:30:01.513Z,4.07
2022-09-14T14:32:29.076Z,4.57
2022-09-14T14:34:56.116Z,5.90
2022-09-14T14:37:22.688Z,4.57
2022-09-14T14:39:49.862Z,4.57
2022-09-14T14:42:16.982Z,6.00
2022-09-14T14:44:44.145Z,4.07
2022-09-14T14:47:12.829Z,4.33
2022-09-14T14:49:39.361Z,4.17
2022-09-14T14:52:06.763Z,4.47
2022-09-14T14:54:33.363Z,4.97
2022-09-14T14:56:59.784Z,4.23
2022-09-14T14:59:29.505Z,4.77
2022-09-14T15:01:56.911Z,4.30
2022-09-14T15:04:23.630Z,4.77
2022-09-14T15:06:50.368Z,4.63
2022-09-14T15:09:22.688Z,4.77
2022-09-14T15:11:50.106Z,3.50
2022-09-14T15:14:23.923Z,5.03
2022-09-14T15:16:57.914Z,4.73
2022-09-14T15:19:24.808Z,5.30
2022-09-14T15:21:51.676Z,6.23
2022-09-14T15:24:18.181Z,6.93
2022-09-14T15:26:44.720Z,6.80
2022-09-14T15:29:13.554Z,5.23
2022-09-14T15:31:40.896Z,8.17
2022-09-14T15:34:07.416Z,9.87
2022-09-14T15:36:42.388Z,5.60
2022-09-14T15:39:11.684Z,5.23
2022-09-14T15:41:38.569Z,5.03
2022-09-14T15:44:05.103Z,4.90
2022-09-14T15:46:31.796Z,4.77
2022-09-14T15:48:58.948Z,4.83
2022-09-14T15:51:25.480Z,7.33
2022-09-14T15:53:52.989Z,5.57
2022-09-14T15:56:19.483Z,4.33
2022-09-14T15:58:48.132Z,6.03
2022-09-14T16:01:16.579Z,7.97
2022-09-14T16:03:43.166Z,7.30
2022-09-14T16:06:11.550Z,5.40
2022-09-14T16:08:38.356Z,6.83
2022-09-14T16:11:06.344Z,4.97
2022-09-14T16:13:34.382Z,5.13
2022-09-14T16:16:06.198Z,5.20
2022-09-14T16:18:33.636Z,5.90
2022-09-14T16:21:15.366Z,5.70
2022-09-14T16:23:47.713Z,5.00
2022-09-14T16:26:29.700Z,4.50
2022-09-14T16:28:56.254Z,6.87
2022-09-14T16:31:34.043Z,5.50
2022-09-14T16:34:03.148Z,4.40
2022-09-14T16:36:32.592Z,5.17
2022-09-14T16:39:05.979Z,5.60
2022-09-14T16:41:33.090Z,6.10
2022-09-14T16:44:01.572Z,5.03
2022-09-14T16:46:30.270Z,4.60
2022-09-14T16:48:58.637Z,4.40
2022-09-14T16:51:26.797Z,5.53
2022-09-14T16:53:53.601Z,4.80
2022-09-14T16:56:25.181Z,4.70
2022-09-14T16:58:53.062Z,4.20
2022-09-14T17:01:23.823Z,3.90
2022-09-14T17:03:52.242Z,4.00
2022-09-14T17:06:20.886Z,3.33
2022-09-14T17:08:48.165Z,3.40
2022-09-14T17:11:16.061Z,4.13
2022-09-14T17:13:44.526Z,4.00
2022-09-14T17:16:14.629Z,3.63
2022-09-14T17:18:43.286Z,4.10
2022-09-14T17:21:12.896Z,4.77
2022-09-14T17:23:40.587Z,4.70
2022-09-14T17:26:09.058Z,5.10
2022-09-14T17:28:36.196Z,4.30
2022-09-14T17:31:05.116Z,4.70
2022-09-14T17:33:32.087Z,4.60
2022-09-14T17:35:59.027Z,4.77
2022-09-14T17:38:28.168Z,5.00
2022-09-14T17:41:06.375Z,4.27
2022-09-14T17:43:34.068Z,4.50
2022-09-14T17:46:01.243Z,3.67
2022-09-14T17:48:30.899Z,4.70
2022-09-14T17:50:57.968Z,4.10
2022-09-14T17:53:24.600Z,5.40
2022-09-14T17:55:51.312Z,4.50
2022-09-14T17:58:19.888Z,4.53
2022-09-14T18:00:46.519Z,3.80
2022-09-14T18:03:13.148Z,4.27
2022-09-14T18:05:39.781Z,4.57
2022-09-14T18:08:06.407Z,4.40
2022-09-14T18:10:35.805Z,4.00
2022-09-14T18:13:02.769Z,4.23
2022-09-14T18:15:30.974Z,4.67
2022-09-14T18:17:57.776Z,5.57
2022-09-14T18:20:24.325Z,4.20
2022-09-14T18:22:50.813Z,4.03
2022-09-14T18:25:17.377Z,3.90
2022-09-14T18:27:43.821Z,4.00
2022-09-14T18:30:10.882Z,3.43
2022-09-14T18:32:37.432Z,4.67
2022-09-14T18:35:04.304Z,6.43
2022-09-14T18:37:30.890Z,5.40
2022-09-14T18:39:57.543Z,5.10
2022-09-14T18:42:24.162Z,4.60
2022-09-14T18:44:53.922Z,4.13
2022-09-14T18:47:21.796Z,4.00
2022-09-14T18:49:50.052Z,4.80
2022-09-14T18:52:19.638Z,4.57
2022-09-14T18:54:46.755Z,5.00
2022-09-14T18:57:14.423Z,5.07
2022-09-14T18:59:40.936Z,4.57
2022-09-14T19:02:09.998Z,5.23
2022-09-14T19:04:37.325Z,4.90
2022-09-14T19:07:04.981Z,4.50
2022-09-14T19:09:31.590Z,4.00
2022-09-14T19:11:58.055Z,4.70
2022-09-14T19:14:24.849Z,5.33
2022-09-14T19:16:51.399Z,5.13
2022-09-14T19:19:17.971Z,5.40
2022-09-14T19:21:44.955Z,4.50
2022-09-14T19:24:14.397Z,4.03
2022-09-14T19:26:46.584Z,4.40
2022-09-14T19:29:15.046Z,5.03
2022-09-14T19:31:41.780Z,5.80
2022-09-14T19:34:08.295Z,5.97
2022-09-14T19:36:34.971Z,6.20
2022-09-14T19:39:02.793Z,4.80
2022-09-14T19:41:31.165Z,5.50
2022-09-14T19:43:58.097Z,5.23
2022-09-14T19:46:24.718Z,6.10
2022-09-14T19:48:52.194Z,5.27
2022-09-14T19:51:25.437Z,4.57
2022-09-14T19:53:59.444Z,4.60
2022-09-14T19:56:29.511Z,4.53
2022-09-14T19:58:58.297Z,9.93
2022-09-14T20:01:26.422Z,5.33
2022-09-14T20:03:53.699Z,5.33
2022-09-14T20:06:23.514Z,4.70
2022-09-14T20:08:56.959Z,4.87
2022-09-14T20:11:25.300Z,6.57
2022-09-14T20:13:56.417Z,4.30
2022-09-14T20:16:26.302Z,3.80
2022-09-14T20:18:52.955Z,6.33
2022-09-14T20:21:22.831Z,3.87
2022-09-14T20:24:17.424Z,6.63
2022-09-14T20:26:48.343Z,3.30
2022-09-14T20:29:15.834Z,3.87
2022-09-14T20:31:42.550Z,3.97
2022-09-14T20:34:09.648Z,5.80
2022-09-14T20:36:36.692Z,4.50
2022-09-14T20:39:04.058Z,4.13
2022-09-14T20:41:33.216Z,3.73
2022-09-14T20:44:00.062Z,3.60
2022-09-14T20:46:31.766Z,3.10
2022-09-14T20:48:58.615Z,3.90
2022-09-14T20:51:25.497Z,3.90
2022-09-14T20:53:52.133Z,3.47
2022-09-14T20:56:24.154Z,3.27
2022-09-14T20:58:54.261Z,3.90
2022-09-14T21:01:21.981Z,3.10
2022-09-14T21:03:50.360Z,2.93
2022-09-14T21:06:19.528Z,2.83
2022-09-14T21:08:46.343Z,3.13
2022-09-14T21:11:15.350Z,3.73
2022-09-14T21:13:42.495Z,4.30
2022-09-14T21:16:11.569Z,3.83
2022-09-14T21:18:38.584Z,3.80
2022-09-14T21:21:12.771Z,4.10
2022-09-14T21:23:39.907Z,3.33
2022-09-14T21:26:07.214Z,3.20
2022-09-14T21:28:35.442Z,3.50
2022-09-14T21:31:11.072Z,3.83
2022-09-14T21:33:39.428Z,3.90
2022-09-14T21:36:10.882Z,3.30
2022-09-14T21:38:37.736Z,2.83
2022-09-14T21:41:09.323Z,3.53
2022-09-14T21:43:40.382Z,3.60
2022-09-14T21:46:08.225Z,2.90
2022-09-14T21:48:35.592Z,3.23
2022-09-14T21:51:06.404Z,4.10
2022-09-14T21:53:33.320Z,3.47
2022-09-14T21:55:59.816Z,3.70
2022-09-14T21:58:26.354Z,2.80
2022-09-14T22:00:57.450Z,3.53
2022-09-14T22:03:24.694Z,3.67
2022-09-14T22:06:18.340Z,3.60
2022-09-14T22:08:45.113Z,3.13
2022-09-14T22:11:14.687Z,4.20
2022-09-14T22:13:41.870Z,4.10
2022-09-14T22:16:16.824Z,3.30
2022-09-14T22:18:49.098Z,3.43
2022-09-14T22:21:16.315Z,3.53
2022-09-14T22:23:42.855Z,3.20
2022-09-14T22:26:12.087Z,3.93
2022-09-14T22:28:40.760Z,3.37
2022-09-14T22:31:08.259Z,3.80
2022-09-14T22:33:35.431Z,2.90
2022-09-14T22:36:03.441Z,3.40
2022-09-14T22:38:32.261Z,3.30
2022-09-14T22:41:01.195Z,3.53
2022-09-14T22:43:28.248Z,3.57
2022-09-14T22:45:55.131Z,3.73
2022-09-14T22:48:22.349Z,3.10
2022-09-14T22:50:51.794Z,3.23
2022-09-14T22:53:19.224Z,2.87
2022-09-14T22:55:46.309Z,3.30
2022-09-14T22:58:14.400Z,3.13
2022-09-14T23:00:41.587Z,3.50
2022-09-14T23:03:09.380Z,3.70
2022-09-14T23:05:37.564Z,4.10
2022-09-14T23:08:05.695Z,3.17
2022-09-14T23:10:32.231Z,3.50
2022-09-14T23:12:59.201Z,2.80
2022-09-14T23:15:25.736Z,3.60
2022-09-14T23:17:52.400Z,3.10
2022-09-14T23:20:18.886Z,2.70
2022-09-14T23:22:45.713Z,3.77
2022-09-14T23:25:12.288Z,3.13
2022-09-14T23:27:38.727Z,3.13
2022-09-14T23:30:05.667Z,3.30
2022-09-14T23:32:32.352Z,3.43
2022-09-14T23:34:58.911Z,3.60
2022-09-14T23:37:25.421Z,3.70
2022-09-14T23:39:52.002Z,3.80
2022-09-14T23:42:18.589Z,3.27
2022-09-14T23:44:45.087Z,3.40
2022-09-14T23:47:11.501Z,3.10
2022-09-14T23:49:38.124Z,3.40
2022-09-14T23:52:04.825Z,3.30
2022-09-14T23:54:32.256Z,4.30
2022-09-14T23:56:58.815Z,3.43
2022-09-14T23:59:25.349Z,3.20
